createdAt,value
2018-01-18T00:00:36.177Z,0.00
2018-01-18T00:01:36.194Z,0.00
2018-01-18T00:02:36.227Z,0.00
2018-01-18T00:03:36.262Z,0.00
2018-01-18T00:04:36.290Z,0.00
2018-01-18T00:05:36.317Z,0.00
2018-01-18T00:06:36.711Z,0.00
2018-01-18T00:07:36.376Z,0.00
2018-01-18T00:08:36.410Z,0.00
2018-01-18T00:09:36.441Z,0.00
2018-01-18T00:10:36.464Z,0.00
2018-01-18T00:11:36.497Z,0.00
2018-01-18T00:12:36.538Z,0.00
2018-01-18T00:13:36.826Z,0.00
2018-01-18T00:14:36.585Z,0.00
2018-01-18T00:15:36.635Z,0.00
2018-01-18T00:16:36.648Z,0.00
2018-01-18T00:17:36.682Z,0.00
2018-01-18T00:18:36.706Z,0.00
2018-01-18T00:19:39.771Z,0.00
2018-01-18T00:20:37.023Z,0.00
2018-01-18T00:21:36.800Z,0.00
2018-01-18T00:22:36.830Z,0.00
2018-01-18T00:23:36.875Z,0.00
2018-01-18T00:24:36.909Z,0.00
2018-01-18T00:25:36.923Z,0.00
2018-01-18T00:26:36.950Z,0.00
2018-01-18T00:27:37.233Z,0.00
2018-01-18T00:28:37.019Z,0.00
2018-01-18T00:29:37.041Z,0.00
2018-01-18T00:30:37.075Z,0.00
2018-01-18T00:31:37.103Z,0.00
2018-01-18T00:32:37.133Z,0.00
2018-01-18T00:33:37.162Z,0.00
2018-01-18T00:34:37.453Z,0.00
2018-01-18T00:35:37.220Z,0.00
2018-01-18T00:36:37.258Z,0.00
2018-01-18T00:37:37.281Z,0.00
2018-01-18T00:38:37.331Z,0.00
2018-01-18T00:39:37.348Z,0.00
2018-01-18T00:40:37.376Z,0.00
2018-01-18T00:41:37.660Z,0.00
2018-01-18T00:42:37.463Z,0.00
2018-01-18T00:43:37.482Z,0.00
2018-01-18T00:44:37.490Z,0.00
2018-01-18T00:45:37.798Z,0.00
2018-01-18T00:46:37.552Z,0.00
2018-01-18T00:47:37.585Z,0.00
2018-01-18T00:48:37.861Z,0.00
2018-01-18T00:49:37.655Z,0.00
2018-01-18T00:50:37.671Z,0.00
2018-01-18T00:51:37.704Z,0.00
2018-01-18T00:52:37.735Z,0.00
2018-01-18T00:53:37.765Z,0.00
2018-01-18T00:54:37.796Z,0.00
2018-01-18T00:55:38.078Z,0.00
2018-01-18T00:56:37.864Z,0.00
2018-01-18T00:57:37.882Z,0.00
2018-01-18T00:58:37.918Z,0.00
2018-01-18T00:59:37.945Z,0.00
2018-01-18T01:00:37.981Z,0.00
2018-01-18T01:01:38.005Z,0.00
2018-01-18T01:02:38.287Z,0.00
2018-01-18T01:03:38.070Z,0.00
2018-01-18T01:04:38.096Z,0.00
2018-01-18T01:05:38.131Z,0.00
2018-01-18T01:06:38.154Z,0.00
2018-01-18T01:07:38.196Z,0.00
2018-01-18T01:08:38.215Z,0.00
2018-01-18T01:09:38.502Z,0.00
2018-01-18T01:10:38.276Z,0.00
2018-01-18T01:11:38.315Z,0.00
2018-01-18T01:12:38.342Z,0.00
2018-01-18T01:13:38.401Z,0.00
2018-01-18T01:14:38.442Z,0.00
2018-01-18T01:15:38.677Z,0.00
2018-01-18T01:16:38.485Z,0.00
2018-01-18T01:17:38.517Z,0.00
2018-01-18T01:18:38.535Z,0.00
2018-01-18T01:19:38.569Z,0.00
2018-01-18T01:20:38.580Z,0.00
2018-01-18T01:21:38.896Z,0.00
2018-01-18T01:22:38.648Z,0.00
2018-01-18T01:24:38.702Z,0.00
2018-01-18T01:25:38.729Z,0.00
2018-01-18T01:26:38.763Z,0.00
2018-01-18T01:27:39.048Z,0.00
2018-01-18T01:28:38.819Z,0.00
2018-01-18T01:29:38.850Z,0.00
2018-01-18T01:30:38.897Z,0.00
2018-01-18T01:31:38.915Z,0.00
2018-01-18T01:32:38.942Z,0.00
2018-01-18T01:33:38.981Z,0.00
2018-01-18T01:34:39.020Z,0.00
2018-01-18T01:35:39.047Z,0.00
2018-01-18T01:36:39.075Z,0.00
2018-01-18T01:37:39.114Z,0.00
2018-01-18T01:38:39.125Z,0.00
2018-01-18T01:39:39.168Z,0.00
2018-01-18T01:40:39.485Z,0.00
2018-01-18T01:41:39.216Z,0.00
2018-01-18T01:42:39.250Z,0.00
2018-01-18T01:43:39.280Z,0.00
2018-01-18T01:44:39.319Z,0.00
2018-01-18T01:45:39.336Z,0.00
2018-01-18T01:46:39.367Z,0.00
2018-01-18T01:47:39.650Z,0.00
2018-01-18T01:48:39.434Z,0.00
2018-01-18T01:49:39.462Z,0.00
2018-01-18T01:50:39.504Z,0.00
2018-01-18T01:51:39.524Z,0.00
2018-01-18T01:52:39.546Z,0.00
2018-01-18T01:53:39.577Z,0.00
2018-01-18T01:54:39.959Z,0.00
2018-01-18T01:55:39.639Z,0.00
2018-01-18T01:56:39.668Z,0.00
2018-01-18T01:57:39.702Z,0.00
2018-01-18T01:58:39.767Z,0.00
2018-01-18T01:59:39.768Z,0.00
2018-01-18T02:00:39.797Z,0.00
2018-01-18T02:01:40.072Z,0.00
2018-01-18T02:02:39.852Z,0.00
2018-01-18T02:03:39.888Z,0.00
2018-01-18T02:04:39.910Z,0.00
2018-01-18T02:05:39.955Z,0.00
2018-01-18T02:06:39.981Z,0.00
2018-01-18T02:07:40.008Z,0.00
2018-01-18T02:08:40.284Z,0.00
2018-01-18T02:09:40.068Z,0.00
2018-01-18T02:10:40.126Z,0.00
2018-01-18T02:11:40.127Z,0.00
2018-01-18T02:12:40.157Z,0.00
2018-01-18T02:13:40.190Z,0.00
2018-01-18T02:14:40.224Z,0.00
2018-01-18T02:15:40.499Z,0.00
2018-01-18T02:16:40.278Z,0.00
2018-01-18T02:17:40.315Z,0.00
2018-01-18T02:18:40.341Z,0.00
2018-01-18T02:20:40.398Z,0.00
2018-01-18T02:21:40.638Z,0.00
2018-01-18T02:22:40.712Z,0.00
2018-01-18T02:23:40.488Z,0.00
2018-01-18T02:24:40.521Z,0.00
2018-01-18T02:25:40.559Z,0.00
2018-01-18T02:26:40.578Z,0.00
2018-01-18T02:27:40.612Z,0.00
2018-01-18T02:28:40.650Z,0.00
2018-01-18T02:29:40.972Z,0.00
2018-01-18T02:30:40.719Z,0.00
2018-01-18T02:31:40.741Z,0.00
2018-01-18T02:32:40.787Z,0.00
2018-01-18T02:33:40.792Z,0.00
2018-01-18T02:34:41.088Z,0.00
2018-01-18T02:35:41.105Z,0.00
2018-01-18T02:36:40.882Z,0.00
2018-01-18T02:37:40.919Z,0.00
2018-01-18T02:38:40.944Z,0.00
2018-01-18T02:39:41.003Z,0.00
2018-01-18T02:40:41.005Z,0.00
2018-01-18T02:41:41.293Z,0.00
2018-01-18T02:42:41.083Z,0.00
2018-01-18T02:43:41.127Z,0.00
2018-01-18T02:44:41.134Z,0.00
2018-01-18T02:45:41.156Z,0.00
2018-01-18T02:46:41.191Z,0.00
2018-01-18T02:48:42.387Z,0.00
2018-01-18T02:49:41.278Z,0.00
2018-01-18T02:50:41.314Z,0.00
2018-01-18T02:51:41.341Z,0.00
2018-01-18T02:52:41.380Z,0.00
2018-01-18T02:53:41.401Z,0.00
2018-01-18T02:54:41.683Z,0.00
2018-01-18T02:55:41.462Z,0.00
2018-01-18T02:56:41.493Z,0.00
2018-01-18T02:57:41.533Z,0.00
2018-01-18T02:58:41.552Z,0.00
2018-01-18T02:59:41.582Z,0.00
2018-01-18T03:00:41.624Z,0.00
2018-01-18T03:01:41.897Z,0.00
2018-01-18T03:02:41.678Z,0.00
2018-01-18T03:03:41.705Z,0.00
2018-01-18T03:04:41.734Z,0.00
2018-01-18T03:05:41.770Z,0.00
2018-01-18T03:06:41.805Z,0.00
2018-01-18T03:07:41.831Z,0.00
2018-01-18T03:08:42.106Z,0.00
2018-01-18T03:09:41.896Z,0.00
2018-01-18T03:10:41.918Z,0.00
2018-01-18T03:11:41.957Z,0.00
2018-01-18T03:12:41.993Z,0.00
2018-01-18T03:13:42.011Z,0.00
2018-01-18T03:14:42.050Z,0.00
2018-01-18T03:15:42.343Z,0.00
2018-01-18T03:16:42.101Z,0.00
2018-01-18T03:17:42.133Z,0.00
2018-01-18T03:18:42.175Z,0.00
2018-01-18T03:19:42.210Z,0.00
2018-01-18T03:20:42.426Z,0.00
2018-01-18T03:21:42.257Z,0.00
2018-01-18T03:22:42.606Z,0.00
2018-01-18T03:23:42.317Z,0.00
2018-01-18T03:24:42.346Z,0.00
2018-01-18T03:25:42.377Z,0.00
2018-01-18T03:26:42.407Z,0.00
2018-01-18T03:27:42.437Z,0.00
2018-01-18T03:28:42.471Z,0.00
2018-01-18T03:29:42.799Z,0.00
2018-01-18T03:30:42.531Z,0.00
2018-01-18T03:31:42.568Z,0.00
2018-01-18T03:32:42.864Z,0.00
2018-01-18T03:33:42.623Z,0.00
2018-01-18T03:34:42.652Z,0.00
2018-01-18T03:35:42.705Z,0.00
2018-01-18T03:36:42.963Z,0.00
2018-01-18T03:37:42.744Z,0.00
2018-01-18T03:38:42.773Z,0.00
2018-01-18T03:39:42.802Z,0.00
2018-01-18T03:40:42.835Z,0.00
2018-01-18T03:41:42.871Z,0.00
2018-01-18T03:42:42.903Z,0.00
2018-01-18T03:43:43.229Z,0.00
2018-01-18T03:44:42.958Z,0.00
2018-01-18T03:45:42.989Z,0.00
2018-01-18T03:46:43.022Z,0.00
2018-01-18T03:47:43.047Z,0.00
2018-01-18T03:48:43.078Z,0.00
2018-01-18T03:49:43.107Z,0.00
2018-01-18T03:50:43.393Z,0.00
2018-01-18T03:51:43.168Z,0.00
2018-01-18T03:52:43.200Z,0.00
2018-01-18T03:53:43.234Z,0.00
2018-01-18T03:54:43.266Z,0.00
2018-01-18T03:55:43.309Z,0.00
2018-01-18T03:56:43.321Z,0.00
2018-01-18T03:57:43.604Z,0.00
2018-01-18T03:58:43.418Z,0.00
2018-01-18T03:59:43.435Z,0.00
2018-01-18T04:00:43.462Z,0.00
2018-01-18T04:01:43.519Z,0.00
2018-01-18T04:02:43.505Z,0.00
2018-01-18T04:03:43.535Z,0.00
2018-01-18T04:04:43.878Z,0.00
2018-01-18T04:05:43.601Z,0.00
2018-01-18T04:06:43.656Z,0.00
2018-01-18T04:07:43.668Z,0.00
2018-01-18T04:08:43.790Z,0.00
2018-01-18T04:09:43.720Z,0.00
2018-01-18T04:10:43.756Z,0.00
2018-01-18T04:11:43.782Z,0.00
2018-01-18T04:12:43.824Z,0.00
2018-01-18T04:13:44.048Z,0.00
2018-01-18T04:14:43.883Z,0.00
2018-01-18T04:15:43.903Z,0.00
2018-01-18T04:16:44.003Z,0.00
2018-01-18T04:17:44.264Z,0.00
2018-01-18T04:18:44.049Z,0.00
2018-01-18T04:19:44.031Z,0.00
2018-01-18T04:20:44.181Z,0.00
2018-01-18T04:21:44.108Z,0.00
2018-01-18T04:22:44.526Z,0.00
2018-01-18T04:23:44.440Z,0.00
2018-01-18T04:24:44.182Z,0.00
2018-01-18T04:25:44.207Z,0.00
2018-01-18T04:26:44.262Z,0.00
2018-01-18T04:27:44.278Z,0.00
2018-01-18T04:28:44.297Z,0.00
2018-01-18T04:29:44.623Z,0.00
2018-01-18T04:30:44.367Z,0.00
2018-01-18T04:31:44.453Z,0.00
2018-01-18T04:32:44.422Z,0.00
2018-01-18T04:33:44.450Z,0.00
2018-01-18T04:34:44.487Z,0.00
2018-01-18T04:35:44.514Z,0.00
2018-01-18T04:36:44.853Z,0.00
2018-01-18T04:37:44.574Z,0.00
2018-01-18T04:38:44.604Z,0.00
2018-01-18T04:39:44.637Z,0.00
2018-01-18T04:40:44.669Z,0.00
2018-01-18T04:41:44.721Z,0.00
2018-01-18T04:42:44.727Z,0.00
2018-01-18T04:43:45.020Z,0.00
2018-01-18T04:44:44.822Z,0.00
2018-01-18T04:45:44.892Z,0.00
2018-01-18T04:46:44.859Z,0.00
2018-01-18T04:47:44.879Z,0.00
2018-01-18T04:48:44.914Z,0.00
2018-01-18T04:49:44.968Z,0.00
2018-01-18T04:50:45.220Z,0.00
2018-01-18T04:51:45.005Z,0.00
2018-01-18T04:52:45.078Z,0.00
2018-01-18T04:53:45.098Z,0.00
2018-01-18T04:54:45.093Z,0.00
2018-01-18T04:55:45.146Z,0.00
2018-01-18T04:56:45.169Z,0.00
2018-01-18T04:57:45.494Z,0.00
2018-01-18T04:58:45.668Z,0.00
2018-01-18T04:59:45.251Z,0.00
2018-01-18T05:00:45.281Z,0.00
2018-01-18T05:01:45.398Z,0.00
2018-01-18T05:02:45.371Z,0.00
2018-01-18T05:03:45.392Z,0.00
2018-01-18T05:04:45.425Z,0.00
2018-01-18T05:05:45.434Z,0.00
2018-01-18T05:06:45.467Z,0.00
2018-01-18T05:07:45.490Z,0.00
2018-01-18T05:09:45.557Z,0.00
2018-01-18T05:10:45.853Z,0.00
2018-01-18T05:11:45.624Z,0.00
2018-01-18T05:12:45.674Z,0.00
2018-01-18T05:13:45.689Z,0.00
2018-01-18T05:14:45.706Z,0.00
2018-01-18T05:15:45.759Z,0.00
2018-01-18T05:16:45.767Z,0.00
2018-01-18T05:17:46.104Z,0.00
2018-01-18T05:18:45.860Z,0.00
2018-01-18T05:19:45.862Z,0.00
2018-01-18T05:20:45.909Z,0.00
2018-01-18T05:21:45.920Z,0.00
2018-01-18T05:22:45.965Z,0.00
2018-01-18T05:23:45.986Z,0.00
2018-01-18T05:24:46.268Z,0.00
2018-01-18T05:25:46.044Z,0.00
2018-01-18T05:26:46.075Z,0.00
2018-01-18T05:27:46.110Z,0.00
2018-01-18T05:28:46.138Z,0.00
2018-01-18T05:29:46.217Z,0.00
2018-01-18T05:30:46.199Z,0.00
2018-01-18T05:31:46.478Z,0.00
2018-01-18T05:32:46.265Z,0.00
2018-01-18T05:33:46.617Z,0.00
2018-01-18T05:34:46.362Z,0.00
2018-01-18T05:35:46.347Z,0.00
2018-01-18T05:36:46.381Z,0.00
2018-01-18T05:37:46.433Z,0.00
2018-01-18T05:38:46.769Z,0.00
2018-01-18T05:39:46.486Z,0.00
2018-01-18T05:40:46.512Z,0.00
2018-01-18T05:41:46.540Z,0.00
2018-01-18T05:42:46.565Z,0.00
2018-01-18T05:43:46.607Z,0.00
2018-01-18T05:44:46.624Z,0.00
2018-01-18T05:45:46.904Z,0.00
2018-01-18T05:46:46.683Z,0.00
2018-01-18T05:47:46.719Z,0.00
2018-01-18T05:48:46.744Z,0.00
2018-01-18T05:49:46.777Z,0.00
2018-01-18T05:50:46.820Z,0.00
2018-01-18T05:51:47.091Z,0.00
2018-01-18T05:52:46.883Z,0.00
2018-01-18T05:53:46.902Z,0.00
2018-01-18T05:54:46.943Z,0.00
2018-01-18T05:55:46.960Z,0.00
2018-01-18T05:56:46.992Z,0.00
2018-01-18T05:57:47.328Z,0.00
2018-01-18T05:58:47.091Z,0.00
2018-01-18T05:59:47.089Z,0.00
2018-01-18T06:00:47.113Z,0.00
2018-01-18T06:01:47.167Z,0.00
2018-01-18T06:02:47.175Z,0.00
2018-01-18T06:03:47.514Z,0.00
2018-01-18T06:04:47.236Z,0.00
2018-01-18T06:05:48.299Z,0.00
2018-01-18T06:06:47.298Z,0.00
2018-01-18T06:07:47.342Z,0.00
2018-01-18T06:08:47.362Z,0.00
2018-01-18T06:09:47.475Z,0.00
2018-01-18T06:10:47.721Z,0.00
2018-01-18T06:11:47.450Z,0.00
2018-01-18T06:12:47.508Z,0.00
2018-01-18T06:13:47.522Z,0.00
2018-01-18T06:14:47.543Z,0.00
2018-01-18T06:15:47.571Z,0.00
2018-01-18T06:16:47.606Z,0.00
2018-01-18T06:17:47.897Z,0.00
2018-01-18T06:18:47.685Z,0.00
2018-01-18T06:19:47.694Z,0.00
2018-01-18T06:20:47.728Z,0.00
2018-01-18T06:21:47.760Z,0.00
2018-01-18T06:22:47.808Z,0.00
2018-01-18T06:23:47.828Z,0.00
2018-01-18T06:24:48.100Z,0.00
2018-01-18T06:25:47.922Z,0.00
2018-01-18T06:26:48.327Z,0.00
2018-01-18T06:27:47.955Z,0.00
2018-01-18T06:28:48.939Z,0.00
2018-01-18T06:29:48.012Z,0.00
2018-01-18T06:30:48.031Z,0.00
2018-01-18T06:31:48.371Z,0.00
2018-01-18T06:32:48.111Z,0.00
2018-01-18T06:33:48.163Z,0.00
2018-01-18T06:34:48.200Z,0.00
2018-01-18T06:35:48.200Z,0.00
2018-01-18T06:36:48.215Z,0.00
2018-01-18T06:37:48.248Z,0.00
2018-01-18T06:38:48.552Z,0.00
2018-01-18T06:40:48.338Z,0.00
2018-01-18T06:41:48.367Z,0.00
2018-01-18T06:42:48.412Z,0.00
2018-01-18T06:43:48.435Z,0.00
2018-01-18T06:44:48.470Z,0.00
2018-01-18T06:47:48.804Z,0.00
2018-01-18T06:48:48.588Z,0.00
2018-01-18T06:49:48.618Z,0.00
2018-01-18T06:50:48.644Z,0.00
2018-01-18T06:51:48.692Z,0.00
2018-01-18T06:52:48.705Z,0.00
2018-01-18T06:53:48.750Z,0.00
2018-01-18T06:55:48.878Z,0.00
2018-01-18T06:57:48.870Z,0.00
2018-01-18T06:58:48.891Z,0.00
2018-01-18T06:59:49.257Z,0.00
2018-01-18T07:00:49.153Z,0.00
2018-01-18T07:01:49.234Z,0.00
2018-01-18T07:02:49.024Z,0.00
2018-01-18T07:03:49.045Z,0.00
2018-01-18T07:04:49.089Z,4.00
2018-01-18T07:05:49.123Z,0.00
2018-01-18T07:06:49.134Z,0.00
2018-01-18T07:07:49.167Z,4.00
2018-01-18T07:09:49.476Z,4.00
2018-01-18T07:10:49.265Z,8.00
2018-01-18T07:12:49.327Z,4.00
2018-01-18T07:13:49.550Z,8.00
2018-01-18T07:14:49.380Z,8.00
2018-01-18T07:15:49.668Z,16.00
2018-01-18T07:16:49.439Z,16.00
2018-01-18T07:17:49.519Z,12.00
2018-01-18T07:18:49.510Z,12.00
2018-01-18T07:19:49.536Z,12.00
2018-01-18T07:20:49.562Z,16.00
2018-01-18T07:21:49.603Z,20.00
2018-01-18T07:22:49.881Z,24.00
2018-01-18T07:23:49.662Z,28.00
2018-01-18T07:24:49.716Z,24.00
2018-01-18T07:25:49.712Z,28.00
2018-01-18T07:26:49.814Z,40.00
2018-01-18T07:27:49.781Z,36.00
2018-01-18T07:28:49.810Z,36.00
2018-01-18T07:29:50.089Z,36.00
2018-01-18T07:30:49.870Z,36.00
2018-01-18T07:31:49.896Z,28.00
2018-01-18T07:32:49.925Z,52.00
2018-01-18T07:33:49.959Z,80.00
2018-01-18T07:34:49.993Z,84.00
2018-01-18T07:35:50.024Z,92.00
2018-01-18T07:36:50.302Z,84.00
2018-01-18T07:37:50.078Z,88.00
2018-01-18T07:38:50.108Z,96.00
2018-01-18T07:39:50.147Z,112.00
2018-01-18T07:40:50.169Z,112.00
2018-01-18T07:41:50.418Z,76.00
2018-01-18T07:42:50.433Z,52.00
2018-01-18T07:43:50.517Z,64.00
2018-01-18T07:44:50.305Z,104.00
2018-01-18T07:45:50.327Z,164.00
2018-01-18T07:46:50.427Z,152.00
2018-01-18T07:47:50.386Z,180.00
2018-01-18T07:48:50.413Z,160.00
2018-01-18T07:49:50.474Z,148.00
2018-01-18T07:50:50.727Z,140.00
2018-01-18T07:51:50.505Z,148.00
2018-01-18T07:52:50.555Z,148.00
2018-01-18T07:53:50.565Z,188.00
2018-01-18T07:54:50.604Z,268.00
2018-01-18T07:55:50.629Z,340.00
2018-01-18T07:56:50.659Z,324.00
2018-01-18T07:57:50.998Z,304.00
2018-01-18T07:58:50.731Z,328.00
2018-01-18T07:59:50.750Z,292.00
2018-01-18T08:00:50.804Z,308.00
2018-01-18T08:01:50.813Z,316.00
2018-01-18T08:02:50.842Z,280.00
2018-01-18T08:03:50.873Z,392.00
2018-01-18T08:04:51.150Z,384.00
2018-01-18T08:05:50.943Z,428.00
2018-01-18T08:06:50.961Z,432.00
2018-01-18T08:07:50.998Z,484.00
2018-01-18T08:08:51.036Z,528.00
2018-01-18T08:09:51.050Z,616.00
2018-01-18T08:10:51.088Z,668.00
2018-01-18T08:11:51.365Z,652.00
2018-01-18T08:12:51.148Z,760.00
2018-01-18T08:13:51.177Z,776.00
2018-01-18T08:14:51.206Z,744.00
2018-01-18T08:15:51.241Z,688.00
2018-01-18T08:16:51.264Z,776.00
2018-01-18T08:17:51.296Z,796.00
2018-01-18T08:18:51.639Z,724.00
2018-01-18T08:19:51.364Z,676.00
2018-01-18T08:20:51.388Z,596.00
2018-01-18T08:21:51.419Z,640.00
2018-01-18T08:22:51.454Z,788.00
2018-01-18T08:23:51.482Z,808.00
2018-01-18T08:25:51.837Z,1048.00
2018-01-18T08:26:51.569Z,788.00
2018-01-18T08:27:51.619Z,772.00
2018-01-18T08:28:51.629Z,952.00
2018-01-18T08:29:51.659Z,1232.00
2018-01-18T08:30:51.698Z,1776.00
2018-01-18T08:31:51.724Z,1324.00
2018-01-18T08:32:52.003Z,1120.00
2018-01-18T08:33:51.782Z,988.00
2018-01-18T08:34:51.823Z,864.00
2018-01-18T08:35:51.856Z,896.00
2018-01-18T08:36:51.878Z,1060.00
2018-01-18T08:37:51.906Z,1104.00
2018-01-18T08:38:52.239Z,980.00
2018-01-18T08:39:51.973Z,1092.00
2018-01-18T08:40:51.999Z,936.00
2018-01-18T08:41:52.067Z,1116.00
2018-01-18T08:42:52.059Z,1116.00
2018-01-18T08:43:52.098Z,980.00
2018-01-18T08:44:53.423Z,1072.00
2018-01-18T08:45:52.147Z,1352.00
2018-01-18T08:46:52.179Z,1164.00
2018-01-18T08:47:52.214Z,1412.00
2018-01-18T08:48:52.239Z,1620.00
2018-01-18T08:50:52.552Z,1892.00
2018-01-18T08:51:52.332Z,1880.00
2018-01-18T08:52:52.370Z,1568.00
2018-01-18T08:53:52.400Z,1308.00
2018-01-18T08:54:52.425Z,1476.00
2018-01-18T08:55:52.464Z,1500.00
2018-01-18T08:56:52.486Z,1580.00
2018-01-18T08:57:52.784Z,1464.00
2018-01-18T08:58:52.546Z,1612.00
2018-01-18T08:59:52.576Z,1336.00
2018-01-18T09:00:52.611Z,1076.00
2018-01-18T09:01:53.584Z,1452.00
2018-01-18T09:02:52.670Z,1532.00
2018-01-18T09:03:52.699Z,1520.00
2018-01-18T09:04:52.983Z,1252.00
2018-01-18T09:05:52.767Z,1440.00
2018-01-18T09:06:53.155Z,1216.00
2018-01-18T09:07:52.820Z,1492.00
2018-01-18T09:08:52.904Z,1060.00
2018-01-18T09:09:52.888Z,1100.00
2018-01-18T09:10:52.921Z,1080.00
2018-01-18T09:11:53.407Z,1524.00
2018-01-18T09:12:52.981Z,1592.00
2018-01-18T09:13:53.009Z,1788.00
2018-01-18T09:14:53.044Z,1180.00
2018-01-18T09:15:53.076Z,1304.00
2018-01-18T09:17:53.584Z,1256.00
2018-01-18T09:18:53.165Z,1500.00
2018-01-18T09:19:53.200Z,1304.00
2018-01-18T09:20:53.218Z,1272.00
2018-01-18T09:21:53.249Z,1664.00
2018-01-18T09:22:53.279Z,1088.00
2018-01-18T09:23:53.317Z,1136.00
2018-01-18T09:24:53.655Z,1648.00
2018-01-18T09:25:53.377Z,1924.00
2018-01-18T09:26:53.404Z,2012.00
2018-01-18T09:27:53.447Z,1112.00
2018-01-18T09:28:53.467Z,1264.00
2018-01-18T09:29:53.495Z,1664.00
2018-01-18T09:30:53.529Z,2124.00
2018-01-18T09:31:53.806Z,1568.00
2018-01-18T09:32:53.595Z,1692.00
2018-01-18T09:33:53.619Z,696.00
2018-01-18T09:34:53.657Z,680.00
2018-01-18T09:36:53.716Z,1504.00
2018-01-18T09:37:53.741Z,1724.00
2018-01-18T09:38:54.028Z,1448.00
2018-01-18T09:39:53.805Z,1980.00
2018-01-18T09:40:53.837Z,1520.00
2018-01-18T09:41:53.865Z,1452.00
2018-01-18T09:43:53.955Z,1920.00
2018-01-18T09:44:54.182Z,1744.00
2018-01-18T09:45:54.290Z,1764.00
2018-01-18T09:46:54.071Z,1588.00
2018-01-18T09:47:54.102Z,1684.00
2018-01-18T09:48:54.080Z,1868.00
2018-01-18T09:50:54.499Z,1648.00
2018-01-18T09:51:54.181Z,2148.00
2018-01-18T09:52:54.467Z,1568.00
2018-01-18T09:53:54.239Z,1820.00
2018-01-18T09:54:54.265Z,1788.00
2018-01-18T09:55:54.297Z,1684.00
2018-01-18T09:56:54.332Z,1948.00
2018-01-18T09:57:54.358Z,1924.00
2018-01-18T09:59:54.728Z,1660.00
2018-01-18T10:00:54.451Z,1772.00
2018-01-18T10:01:54.550Z,1788.00
2018-01-18T10:02:54.521Z,1384.00
2018-01-18T10:03:54.549Z,2288.00
2018-01-18T10:04:54.589Z,1500.00
2018-01-18T10:05:54.850Z,1956.00
2018-01-18T10:06:54.641Z,1772.00
2018-01-18T10:07:54.669Z,1412.00
2018-01-18T10:08:54.721Z,1764.00
2018-01-18T10:09:54.738Z,972.00
2018-01-18T10:11:55.096Z,888.00
2018-01-18T10:12:54.878Z,1064.00
2018-01-18T10:13:54.857Z,1176.00
2018-01-18T10:14:54.886Z,1172.00
2018-01-18T10:15:54.909Z,1064.00
2018-01-18T10:17:57.326Z,1128.00
2018-01-18T10:18:55.005Z,1136.00
2018-01-18T10:19:55.032Z,1096.00
2018-01-18T10:20:56.329Z,1032.00
2018-01-18T10:21:55.146Z,1340.00
2018-01-18T10:22:55.137Z,1752.00
2018-01-18T10:23:55.155Z,1284.00
2018-01-18T10:24:55.452Z,1152.00
2018-01-18T10:25:55.244Z,1240.00
2018-01-18T10:26:55.247Z,1568.00
2018-01-18T10:27:55.335Z,1832.00
2018-01-18T10:28:55.330Z,1924.00
2018-01-18T10:29:55.347Z,1824.00
2018-01-18T10:30:55.391Z,1804.00
2018-01-18T10:31:55.703Z,2428.00
2018-01-18T10:32:55.517Z,2836.00
2018-01-18T10:33:55.476Z,2660.00
2018-01-18T10:34:55.492Z,2268.00
2018-01-18T10:35:55.524Z,2216.00
2018-01-18T10:36:55.553Z,2160.00
2018-01-18T10:37:55.595Z,2388.00
2018-01-18T10:39:55.645Z,2512.00
2018-01-18T10:40:55.675Z,2304.00
2018-01-18T10:41:55.710Z,2748.00
2018-01-18T10:43:55.768Z,2108.00
2018-01-18T10:45:56.077Z,2164.00
2018-01-18T10:46:55.867Z,2628.00
2018-01-18T10:47:55.903Z,2592.00
2018-01-18T10:48:55.919Z,2476.00
2018-01-18T10:49:55.951Z,1992.00
2018-01-18T10:50:56.039Z,1964.00
2018-01-18T10:51:56.013Z,1904.00
2018-01-18T10:52:56.317Z,2704.00
2018-01-18T10:53:56.074Z,2512.00
2018-01-18T10:54:56.163Z,2804.00
2018-01-18T10:55:56.166Z,2068.00
2018-01-18T10:56:56.196Z,2124.00
2018-01-18T10:57:56.202Z,2304.00
2018-01-18T10:59:56.510Z,2960.00
2018-01-18T11:00:56.291Z,2720.00
2018-01-18T11:01:56.320Z,2748.00
2018-01-18T11:02:56.557Z,3016.00
2018-01-18T11:03:56.585Z,2584.00
2018-01-18T11:04:56.423Z,3036.00
2018-01-18T11:05:56.813Z,3076.00
2018-01-18T11:06:56.735Z,2420.00
2018-01-18T11:08:56.540Z,2596.00
2018-01-18T11:10:56.601Z,2432.00
2018-01-18T11:11:58.193Z,2180.00
2018-01-18T11:12:56.664Z,2760.00
2018-01-18T11:13:56.995Z,2104.00
2018-01-18T11:15:56.765Z,2064.00
2018-01-18T11:16:56.820Z,2100.00
2018-01-18T11:17:56.815Z,2824.00
2018-01-18T11:18:56.850Z,2328.00
2018-01-18T11:19:56.881Z,3136.00
2018-01-18T11:20:57.217Z,2652.00
2018-01-18T11:21:56.953Z,2832.00
2018-01-18T11:22:56.984Z,2872.00
2018-01-18T11:23:56.999Z,2616.00
2018-01-18T11:24:57.037Z,2328.00
2018-01-18T11:27:57.428Z,3052.00
2018-01-18T11:28:57.364Z,2864.00
2018-01-18T11:29:57.186Z,2772.00
2018-01-18T11:30:57.235Z,2692.00
2018-01-18T11:32:57.286Z,2576.00
2018-01-18T11:34:57.589Z,2492.00
2018-01-18T11:35:57.379Z,2568.00
2018-01-18T11:36:57.397Z,3484.00
2018-01-18T11:37:57.427Z,3416.00
2018-01-18T11:38:57.517Z,3376.00
2018-01-18T11:39:57.494Z,3048.00
2018-01-18T11:40:57.521Z,2768.00
2018-01-18T11:41:57.861Z,2980.00
2018-01-18T11:43:57.618Z,2812.00
2018-01-18T11:44:57.643Z,3168.00
2018-01-18T11:45:57.692Z,3268.00
2018-01-18T11:46:57.706Z,3416.00
2018-01-18T11:48:57.775Z,2920.00
2018-01-18T11:49:57.822Z,3140.00
2018-01-18T11:50:57.828Z,3116.00
2018-01-18T11:51:58.078Z,2856.00
2018-01-18T11:52:57.900Z,2952.00
2018-01-18T11:53:58.224Z,2480.00
2018-01-18T11:54:57.956Z,2620.00
2018-01-18T11:55:58.015Z,2404.00
2018-01-18T11:56:58.029Z,2764.00
2018-01-18T11:57:58.045Z,2516.00
2018-01-18T11:58:58.088Z,2232.00
2018-01-18T11:59:58.364Z,2484.00
2018-01-18T12:00:58.155Z,3136.00
2018-01-18T12:01:58.181Z,2580.00
2018-01-18T12:02:58.197Z,1944.00
2018-01-18T12:03:58.231Z,2148.00
2018-01-18T12:05:58.545Z,2716.00
2018-01-18T12:06:58.367Z,2184.00
2018-01-18T12:07:58.359Z,2108.00
2018-01-18T12:08:58.388Z,2864.00
2018-01-18T12:09:58.416Z,3312.00
2018-01-18T12:10:58.448Z,2608.00
2018-01-18T12:11:58.845Z,2524.00
2018-01-18T12:13:58.540Z,2688.00
2018-01-18T12:14:58.623Z,3116.00
2018-01-18T12:15:58.624Z,3272.00
2018-01-18T12:16:58.629Z,3344.00
2018-01-18T12:18:58.942Z,3004.00
2018-01-18T12:19:58.728Z,2036.00
2018-01-18T12:20:58.784Z,1756.00
2018-01-18T12:21:58.811Z,1964.00
2018-01-18T12:22:58.816Z,1828.00
2018-01-18T12:23:58.848Z,2244.00
2018-01-18T12:24:58.874Z,2588.00
2018-01-18T12:25:59.166Z,1832.00
2018-01-18T12:26:58.936Z,1380.00
2018-01-18T12:27:58.976Z,1380.00
2018-01-18T12:28:59.003Z,1608.00
2018-01-18T12:29:59.038Z,1788.00
2018-01-18T12:30:59.072Z,1344.00
2018-01-18T12:31:59.100Z,1644.00
2018-01-18T12:32:59.372Z,2232.00
2018-01-18T12:33:59.178Z,1820.00
2018-01-18T12:35:59.214Z,2108.00
2018-01-18T12:36:59.247Z,1580.00
2018-01-18T12:38:59.570Z,1576.00
2018-01-18T12:39:59.338Z,2092.00
2018-01-18T12:40:59.373Z,2732.00
2018-01-18T12:41:59.399Z,2500.00
2018-01-18T12:42:59.433Z,1972.00
2018-01-18T12:43:59.460Z,1720.00
2018-01-18T12:44:59.790Z,2124.00
2018-01-18T12:45:59.522Z,2624.00
2018-01-18T12:46:59.558Z,2212.00
2018-01-18T12:47:59.593Z,1964.00
2018-01-18T12:48:59.618Z,2056.00
2018-01-18T12:49:59.666Z,1860.00
2018-01-18T12:51:01.265Z,2160.00
2018-01-18T12:51:59.708Z,1580.00
2018-01-18T12:52:59.808Z,1552.00
2018-01-18T12:54:59.823Z,1676.00
2018-01-18T12:55:59.839Z,1420.00
2018-01-18T12:57:00.118Z,2028.00
2018-01-18T12:57:59.892Z,2424.00
2018-01-18T12:58:59.927Z,1800.00
2018-01-18T12:59:59.964Z,1716.00
2018-01-18T13:00:59.981Z,1716.00
2018-01-18T13:02:00.027Z,1888.00
2018-01-18T13:03:00.045Z,2632.00
2018-01-18T13:04:00.323Z,3104.00
2018-01-18T13:05:00.104Z,2660.00
2018-01-18T13:06:00.135Z,2460.00
2018-01-18T13:07:00.166Z,1604.00
2018-01-18T13:08:00.198Z,1932.00
2018-01-18T13:09:00.226Z,2144.00
2018-01-18T13:10:00.263Z,2860.00
2018-01-18T13:11:00.596Z,3044.00
2018-01-18T13:12:00.318Z,2808.00
2018-01-18T13:13:00.358Z,2564.00
2018-01-18T13:14:00.401Z,3088.00
2018-01-18T13:15:00.483Z,2876.00
2018-01-18T13:16:00.503Z,2300.00
2018-01-18T13:17:00.485Z,2704.00
2018-01-18T13:18:00.752Z,2172.00
2018-01-18T13:19:00.903Z,1440.00
2018-01-18T13:20:00.921Z,1496.00
2018-01-18T13:21:00.616Z,1552.00
2018-01-18T13:22:00.676Z,2136.00
2018-01-18T13:23:00.659Z,1784.00
2018-01-18T13:24:00.687Z,1872.00
2018-01-18T13:25:00.968Z,1508.00
2018-01-18T13:26:00.749Z,2544.00
2018-01-18T13:27:00.778Z,2732.00